KSAA/SAA METAR and TAF weather

Enter ICAO airport designator
Station Type Date Time Source
KSAA METAR 2019/10/23 02:15 UTC NOAA

KSAA 230215Z AUTO 23018G25KT 10SM SCT041 SCT048 05/00 A3008 RMK AO2


Station Type Date Time Source
KSAA Decoded METAR 2019/10/23 02:15 UTC NOAA

Station name not available
Oct 22, 2019 - 10:15 PM EDT / 2019.10.23 0215 UTC
Wind: from the SW (230 degrees) at 21 MPH (18 KT) gusting to 29 MPH (25 KT):0
Visibility: 10 mile(s):0
Sky conditions: partly cloudy
Temperature: 41 F (5 C)
Dew Point: 32 F (0 C)
Relative Humidity: 70%
Pressure (altimeter): 30.08 in. Hg (1018 hPa)
ob: KSAA 230215Z AUTO 23018G25KT 10SM SCT041 SCT048 05/00 A3008 RMK AO2
cycle: 2

Station Type Date Time Source
KSAA TAF UTC NOAA

Error!

Example: see airport list